createdAt,value
2022-12-18T00:00:18.891Z,9.443691
2022-12-18T00:01:18.917Z,9.443764
2022-12-18T00:02:18.881Z,9.443671
2022-12-18T00:03:18.938Z,9.443701
2022-12-18T00:04:18.893Z,9.443699
2022-12-18T00:05:18.849Z,9.443759
2022-12-18T00:06:18.853Z,9.443737
2022-12-18T00:07:18.850Z,9.443669
2022-12-18T00:08:18.831Z,9.443636
2022-12-18T00:09:18.837Z,9.443653
2022-12-18T00:10:18.809Z,9.443693
2022-12-18T00:11:18.819Z,9.443687
2022-12-18T00:13:19.813Z,9.443424
2022-12-18T00:14:18.788Z,9.443501
2022-12-18T00:15:18.804Z,9.443544
2022-12-18T00:16:18.812Z,9.443647
2022-12-18T00:17:18.780Z,9.443676
2022-12-18T00:18:20.730Z,9.443639
2022-12-18T00:19:19.889Z,9.443602
2022-12-18T00:20:18.748Z,9.443637
2022-12-18T00:21:18.735Z,9.443658
2022-12-18T00:22:18.745Z,9.443691
2022-12-18T00:23:18.744Z,9.443677
2022-12-18T00:24:18.731Z,9.443653
2022-12-18T00:25:18.718Z,9.443656
2022-12-18T00:26:18.708Z,9.443650
2022-12-18T00:27:18.708Z,9.443677
2022-12-18T00:28:18.722Z,9.443645
2022-12-18T00:29:18.708Z,9.443629
2022-12-18T00:30:18.704Z,9.443675
2022-12-18T00:31:18.763Z,9.443668
2022-12-18T00:32:18.676Z,9.443700
2022-12-18T00:33:18.676Z,9.443695
2022-12-18T00:34:18.706Z,9.443709
2022-12-18T00:35:18.659Z,9.443709
2022-12-18T00:36:18.655Z,9.443694
2022-12-18T00:37:20.360Z,9.443742
2022-12-18T00:38:19.644Z,9.443649
2022-12-18T00:39:18.648Z,9.443685
2022-12-18T00:40:18.640Z,9.443657
2022-12-18T00:41:18.617Z,9.443653
2022-12-18T00:42:18.620Z,9.443688
2022-12-18T00:43:18.608Z,9.443725
2022-12-18T00:44:18.605Z,9.443708
2022-12-18T00:45:18.604Z,9.443721
2022-12-18T00:46:18.681Z,9.443731
2022-12-18T00:47:18.574Z,9.443706
2022-12-18T00:48:18.570Z,9.443683
2022-12-18T00:49:18.584Z,9.443706
2022-12-18T00:50:18.558Z,9.443727
2022-12-18T00:51:18.553Z,9.443719
2022-12-18T00:52:18.554Z,9.443699
2022-12-18T00:53:18.538Z,9.443711
2022-12-18T00:54:18.553Z,9.443686
2022-12-18T00:55:18.533Z,9.443669
2022-12-18T00:56:18.524Z,9.443809
2022-12-18T00:57:18.511Z,9.443772
2022-12-18T00:58:18.517Z,9.443693
2022-12-18T00:59:18.534Z,9.443798
2022-12-18T01:00:18.497Z,9.443804
2022-12-18T01:01:18.599Z,9.443705
2022-12-18T01:02:18.649Z,9.443782
2022-12-18T01:03:18.584Z,9.443813
2022-12-18T01:04:18.482Z,9.443742
2022-12-18T01:05:18.466Z,9.443744
2022-12-18T01:06:18.458Z,9.443793
2022-12-18T01:07:18.461Z,9.443799
2022-12-18T01:08:18.444Z,9.443762
2022-12-18T01:09:18.434Z,9.443845
2022-12-18T01:10:18.436Z,9.443823
2022-12-18T01:11:18.437Z,9.443783
2022-12-18T01:12:18.408Z,9.443844
2022-12-18T01:13:18.417Z,9.443923
2022-12-18T01:14:18.396Z,9.443739
2022-12-18T01:15:18.408Z,9.443742
2022-12-18T01:16:18.457Z,9.443846
2022-12-18T01:17:18.382Z,9.443812
2022-12-18T01:18:18.371Z,9.443742
2022-12-18T01:19:18.382Z,9.443752
2022-12-18T01:20:18.366Z,9.443747
2022-12-18T01:21:18.369Z,9.443727
2022-12-18T01:22:18.353Z,9.443830
2022-12-18T01:23:18.344Z,9.443834
2022-12-18T01:24:18.335Z,9.443708
2022-12-18T01:25:18.356Z,9.443764
2022-12-18T01:26:18.312Z,9.443742
2022-12-18T01:27:18.322Z,9.443840
2022-12-18T01:28:18.327Z,9.443777
2022-12-18T01:29:18.300Z,9.443742
2022-12-18T01:30:18.315Z,9.443699
2022-12-18T01:31:18.337Z,9.443758
2022-12-18T01:32:18.292Z,9.443699
2022-12-18T01:33:18.268Z,9.443743
2022-12-18T01:34:18.273Z,9.443734
2022-12-18T01:35:18.260Z,9.443758
2022-12-18T01:36:18.254Z,9.443751
2022-12-18T01:37:18.254Z,9.443645
2022-12-18T01:38:18.261Z,9.443733
2022-12-18T01:39:18.233Z,9.443757
2022-12-18T01:40:19.230Z,9.443770
2022-12-18T01:41:18.212Z,9.443767
2022-12-18T01:42:18.210Z,9.443764
2022-12-18T01:43:18.229Z,9.443782
2022-12-18T01:44:18.205Z,9.443736
2022-12-18T01:45:18.193Z,9.443727
2022-12-18T01:46:18.241Z,9.443727
2022-12-18T01:47:18.189Z,9.443673
2022-12-18T01:48:18.197Z,9.443727
2022-12-18T01:49:18.176Z,9.443727
2022-12-18T01:50:18.161Z,9.443723
2022-12-18T01:51:18.156Z,9.443677
2022-12-18T01:52:18.157Z,9.443668
2022-12-18T01:53:18.141Z,9.443668
2022-12-18T01:54:18.159Z,9.443701
2022-12-18T01:55:18.159Z,9.443679
2022-12-18T01:56:18.118Z,9.443678
2022-12-18T01:57:18.114Z,9.443706
2022-12-18T01:58:18.124Z,9.443708
2022-12-18T01:59:18.116Z,9.443763
2022-12-18T02:00:18.087Z,9.443701
2022-12-18T02:01:18.216Z,9.443678
2022-12-18T02:02:18.198Z,9.443670
2022-12-18T02:03:18.120Z,9.443736
2022-12-18T02:04:18.075Z,9.443782
2022-12-18T02:05:18.077Z,9.443763
2022-12-18T02:06:18.051Z,9.443696
2022-12-18T02:07:18.063Z,9.443761
2022-12-18T02:08:18.038Z,9.443702
2022-12-18T02:09:18.033Z,9.443656
2022-12-18T02:10:18.044Z,9.443663
2022-12-18T02:11:18.019Z,9.443695
2022-12-18T02:12:18.002Z,9.443672
2022-12-18T02:13:18.102Z,9.443653
2022-12-18T02:14:18.004Z,9.443686
2022-12-18T02:15:17.996Z,9.443730
2022-12-18T02:16:18.050Z,9.443731
2022-12-18T02:17:18.012Z,9.443675
2022-12-18T02:18:17.975Z,9.443704
2022-12-18T02:19:17.971Z,9.443680
2022-12-18T02:20:17.979Z,9.443667
2022-12-18T02:21:17.954Z,9.443707
2022-12-18T02:22:18.510Z,9.443696
2022-12-18T02:23:17.936Z,9.443681
2022-12-18T02:24:17.958Z,9.443687
2022-12-18T02:25:17.959Z,9.443692
2022-12-18T02:26:17.979Z,9.443649
2022-12-18T02:27:17.919Z,9.443646
2022-12-18T02:28:17.934Z,9.443687
2022-12-18T02:29:18.002Z,9.443708
2022-12-18T02:30:17.933Z,9.443694
2022-12-18T02:31:17.968Z,9.443658
2022-12-18T02:32:17.899Z,9.443727
2022-12-18T02:33:17.891Z,9.443674
2022-12-18T02:34:17.888Z,9.443697
2022-12-18T02:35:17.891Z,9.443664
2022-12-18T02:36:17.887Z,9.443648
2022-12-18T02:37:17.876Z,9.443683
2022-12-18T02:38:17.859Z,9.443712
2022-12-18T02:39:17.854Z,9.443723
2022-12-18T02:40:17.863Z,9.443668
2022-12-18T02:41:17.867Z,9.443718
2022-12-18T02:42:17.840Z,9.443673
2022-12-18T02:43:17.849Z,9.443678
2022-12-18T02:44:17.828Z,9.443661
2022-12-18T02:45:17.912Z,9.443739
2022-12-18T02:46:17.902Z,9.443721
2022-12-18T02:47:17.807Z,9.443700
2022-12-18T02:48:17.817Z,9.443731
2022-12-18T02:49:17.794Z,9.443763
2022-12-18T02:50:17.791Z,9.443789
2022-12-18T02:51:17.808Z,9.443717
2022-12-18T02:52:17.796Z,9.443707
2022-12-18T02:53:17.780Z,9.443716
2022-12-18T02:54:17.784Z,9.443618
2022-12-18T02:55:17.773Z,9.443727
2022-12-18T02:56:17.766Z,9.443719
2022-12-18T02:57:17.794Z,9.443762
2022-12-18T02:58:17.739Z,9.443702
2022-12-18T02:59:17.745Z,9.443694
2022-12-18T03:00:17.729Z,9.443661
2022-12-18T03:01:17.934Z,9.443686
2022-12-18T03:02:18.060Z,9.443518
2022-12-18T03:03:17.804Z,9.443664
2022-12-18T03:04:17.717Z,9.443652
2022-12-18T03:05:17.723Z,9.443694
2022-12-18T03:06:17.708Z,9.443617
2022-12-18T03:07:17.720Z,9.443674
2022-12-18T03:08:17.713Z,9.443759
2022-12-18T03:09:17.691Z,9.443690
2022-12-18T03:10:17.687Z,9.443689
2022-12-18T03:11:17.692Z,9.443638
2022-12-18T03:12:17.694Z,9.443693
2022-12-18T03:13:17.661Z,9.443654
2022-12-18T03:14:17.672Z,9.443665
2022-12-18T03:15:18.140Z,9.443701
2022-12-18T03:16:18.679Z,9.443702
2022-12-18T03:17:17.745Z,9.443718
2022-12-18T03:18:17.644Z,9.443683
2022-12-18T03:19:17.939Z,9.443602
2022-12-18T03:20:17.637Z,9.443620
2022-12-18T03:21:17.615Z,9.443656
2022-12-18T03:22:17.616Z,9.443734
2022-12-18T03:23:17.627Z,9.443695
2022-12-18T03:24:17.615Z,9.443699
2022-12-18T03:25:17.613Z,9.443667
2022-12-18T03:26:17.611Z,9.443680
2022-12-18T03:27:17.590Z,9.443649
2022-12-18T03:28:17.590Z,9.443727
2022-12-18T03:29:17.591Z,9.443728
2022-12-18T03:30:17.584Z,9.443794
2022-12-18T03:31:17.638Z,9.443772
2022-12-18T03:32:17.573Z,9.443744
2022-12-18T03:33:17.673Z,9.443698
2022-12-18T03:34:17.548Z,9.443765
2022-12-18T03:35:17.566Z,9.443744
2022-12-18T03:36:17.582Z,9.443767
2022-12-18T03:37:17.541Z,9.443751
2022-12-18T03:38:18.375Z,9.443800
2022-12-18T03:39:17.529Z,9.443769
2022-12-18T03:40:17.540Z,9.443797
2022-12-18T03:41:17.534Z,9.443776
2022-12-18T03:42:17.519Z,9.443756
2022-12-18T03:43:17.522Z,9.443760
2022-12-18T03:44:17.523Z,9.443705
2022-12-18T03:45:17.503Z,9.443713
2022-12-18T03:46:17.604Z,9.443750
2022-12-18T03:47:17.505Z,9.443764
2022-12-18T03:48:17.512Z,9.443749
2022-12-18T03:49:22.963Z,9.443734
2022-12-18T03:50:24.444Z,9.443734
2022-12-18T03:51:18.562Z,9.443739
2022-12-18T03:52:17.475Z,9.443770
2022-12-18T03:53:17.495Z,9.443783
2022-12-18T03:54:17.476Z,9.443787
2022-12-18T03:55:17.462Z,9.443738
2022-12-18T03:56:17.473Z,9.443758
2022-12-18T03:57:17.459Z,9.443791
2022-12-18T03:58:17.477Z,9.443796
2022-12-18T03:59:17.463Z,9.443750
2022-12-18T04:00:17.440Z,9.443725
2022-12-18T04:01:17.569Z,9.443702
2022-12-18T04:02:17.635Z,9.443686
2022-12-18T04:03:17.501Z,9.443697
2022-12-18T04:04:17.474Z,9.443671
2022-12-18T04:05:17.438Z,9.443699
2022-12-18T04:06:17.466Z,9.443753
2022-12-18T04:07:17.503Z,9.443583
2022-12-18T04:08:43.846Z,9.443579
2022-12-18T04:09:17.404Z,9.443605
2022-12-18T04:10:17.398Z,9.443674
2022-12-18T04:11:17.398Z,9.443617
2022-12-18T04:12:17.398Z,9.443625
2022-12-18T04:13:17.394Z,9.443628
2022-12-18T04:14:18.179Z,9.443629
2022-12-18T04:15:18.391Z,9.443678
2022-12-18T04:16:17.422Z,9.443652
2022-12-18T04:17:17.379Z,9.443737
2022-12-18T04:18:17.363Z,9.443721
2022-12-18T04:19:17.378Z,9.443701
2022-12-18T04:20:17.372Z,9.443618
2022-12-18T04:21:17.350Z,9.443694
2022-12-18T04:22:17.354Z,9.443694
2022-12-18T04:23:17.437Z,9.443671
2022-12-18T04:24:17.345Z,9.443661
2022-12-18T04:25:17.325Z,9.443714
2022-12-18T04:26:17.334Z,9.443711
2022-12-18T04:27:17.339Z,9.443656
2022-12-18T04:28:17.330Z,9.443640
2022-12-18T04:29:17.318Z,9.443681
2022-12-18T04:30:17.320Z,9.443664
2022-12-18T04:31:17.348Z,9.443651
2022-12-18T04:32:17.310Z,9.443716
2022-12-18T04:33:17.320Z,9.443661
2022-12-18T04:34:17.294Z,9.443629
2022-12-18T04:35:17.303Z,9.443719
2022-12-18T04:36:17.324Z,9.443659
2022-12-18T04:37:17.300Z,9.443656
2022-12-18T04:38:17.280Z,9.443795
2022-12-18T04:39:17.381Z,9.443721
2022-12-18T04:40:17.275Z,9.443650
2022-12-18T04:41:17.259Z,9.443701
2022-12-18T04:42:17.260Z,9.443715
2022-12-18T04:43:17.373Z,9.443644
2022-12-18T04:44:17.251Z,9.443645
2022-12-18T04:45:17.268Z,9.443649
2022-12-18T04:46:17.332Z,9.443667
2022-12-18T04:47:17.244Z,9.443770
2022-12-18T04:48:17.248Z,9.443609
2022-12-18T04:49:17.227Z,9.443713
2022-12-18T04:50:17.252Z,9.443721
2022-12-18T04:51:18.989Z,9.443705
2022-12-18T04:52:18.228Z,9.443640
2022-12-18T04:53:17.222Z,9.443690
2022-12-18T04:54:17.215Z,9.443731
2022-12-18T04:55:17.304Z,9.443740
2022-12-18T04:56:17.230Z,9.443693
2022-12-18T04:57:17.226Z,9.443629
2022-12-18T04:58:17.212Z,9.443661
2022-12-18T04:59:17.190Z,9.443645
2022-12-18T05:00:17.202Z,9.443728
2022-12-18T05:01:17.308Z,9.443705
2022-12-18T05:02:17.280Z,9.443728
2022-12-18T05:03:17.242Z,9.443775
2022-12-18T05:04:17.226Z,9.443655
2022-12-18T05:05:17.177Z,9.443663
2022-12-18T05:06:17.169Z,9.443600
2022-12-18T05:07:17.178Z,9.443563
2022-12-18T05:08:17.166Z,9.443624
2022-12-18T05:09:17.165Z,9.443528
2022-12-18T05:10:17.154Z,9.443593
2022-12-18T05:11:17.236Z,9.443659
2022-12-18T05:12:17.169Z,9.443542
2022-12-18T05:13:18.010Z,9.443582
2022-12-18T05:14:17.137Z,9.443687
2022-12-18T05:15:17.150Z,9.443643
2022-12-18T05:16:17.337Z,9.443658
2022-12-18T05:17:17.153Z,9.443740
2022-12-18T05:18:17.121Z,9.443545
2022-12-18T05:19:17.116Z,9.443684
2022-12-18T05:20:17.132Z,9.443619
2022-12-18T05:21:17.117Z,9.443625
2022-12-18T05:22:17.115Z,9.443760
2022-12-18T05:23:17.116Z,9.443726
2022-12-18T05:24:17.105Z,9.443636
2022-12-18T05:25:17.095Z,9.443570
2022-12-18T05:26:17.087Z,9.443561
2022-12-18T05:27:17.178Z,9.443756
2022-12-18T05:28:17.107Z,9.443905
2022-12-18T05:29:17.131Z,9.443801
2022-12-18T05:30:17.062Z,9.443626
2022-12-18T05:31:17.142Z,9.443751
2022-12-18T05:32:17.068Z,9.443865
2022-12-18T05:33:17.087Z,9.443771
2022-12-18T05:34:17.055Z,9.443604
2022-12-18T05:35:17.068Z,9.443587
2022-12-18T05:36:17.070Z,9.443609
2022-12-18T05:37:17.028Z,9.443634
2022-12-18T05:38:17.124Z,9.443569
2022-12-18T05:39:17.128Z,9.443686
2022-12-18T05:40:17.030Z,9.443626
2022-12-18T05:41:17.027Z,9.443703
2022-12-18T05:42:17.019Z,9.443748
2022-12-18T05:43:21.177Z,9.443808
2022-12-18T05:44:18.023Z,9.443751
2022-12-18T05:45:17.023Z,9.443666
2022-12-18T05:46:17.089Z,9.443721
2022-12-18T05:47:17.003Z,9.443717
2022-12-18T05:48:17.004Z,9.443698
2022-12-18T05:49:17.108Z,9.443655
2022-12-18T05:50:17.004Z,9.443629
2022-12-18T05:51:16.988Z,9.443664
2022-12-18T05:52:16.979Z,9.443707
2022-12-18T05:53:16.971Z,9.443705
2022-12-18T05:54:17.015Z,9.443696
2022-12-18T05:55:16.983Z,9.443661
2022-12-18T05:56:16.981Z,9.443707
2022-12-18T05:57:16.966Z,9.443715
2022-12-18T05:58:16.947Z,9.443684
2022-12-18T05:59:17.062Z,9.443738
2022-12-18T06:00:16.969Z,9.443846
2022-12-18T06:01:16.998Z,9.443852
2022-12-18T06:02:17.017Z,9.443562
2022-12-18T06:03:17.061Z,9.443657
2022-12-18T06:04:17.065Z,9.443626
2022-12-18T06:05:16.931Z,9.443549
2022-12-18T06:06:16.918Z,9.443551
2022-12-18T06:07:16.923Z,9.443831
2022-12-18T06:08:16.903Z,9.443456
2022-12-18T06:09:16.935Z,9.443225
2022-12-18T06:10:16.898Z,9.443288
2022-12-18T06:11:16.901Z,9.443445
2022-12-18T06:12:16.906Z,9.442940
2022-12-18T06:13:16.903Z,9.442601
2022-12-18T06:14:16.877Z,9.442687
2022-12-18T06:15:17.976Z,9.443757
2022-12-18T06:16:16.998Z,9.443741
2022-12-18T06:17:16.880Z,9.443706
2022-12-18T06:18:16.861Z,9.443769
2022-12-18T06:19:16.868Z,9.443749
2022-12-18T06:20:16.900Z,9.443730
2022-12-18T06:21:16.840Z,9.443810
2022-12-18T06:22:16.852Z,9.443775
2022-12-18T06:23:16.856Z,9.443765
2022-12-18T06:24:16.841Z,9.443794
2022-12-18T06:25:16.855Z,9.443794
2022-12-18T06:26:17.848Z,9.443827
2022-12-18T06:27:16.826Z,9.443777
2022-12-18T06:28:16.828Z,9.443723
2022-12-18T06:29:16.844Z,9.443742
2022-12-18T06:30:16.817Z,9.443804
2022-12-18T06:31:17.006Z,9.443741
2022-12-18T06:32:16.811Z,9.443650
2022-12-18T06:33:16.799Z,9.443776
2022-12-18T06:34:16.803Z,9.443767
2022-12-18T06:35:16.811Z,9.443792
2022-12-18T06:36:16.799Z,9.443778
2022-12-18T06:37:17.350Z,9.443844
2022-12-18T06:38:16.789Z,9.443789
2022-12-18T06:39:16.783Z,9.443762
2022-12-18T06:40:16.783Z,9.443806
2022-12-18T06:41:16.799Z,9.443825
2022-12-18T06:42:16.758Z,9.443841
2022-12-18T06:43:17.792Z,9.443747
2022-12-18T06:44:16.760Z,9.443767
2022-12-18T06:45:16.769Z,9.443746
2022-12-18T06:46:16.827Z,9.443762
2022-12-18T06:47:16.873Z,9.443710
2022-12-18T06:48:16.763Z,9.443685
2022-12-18T06:49:16.753Z,9.443746
2022-12-18T06:50:16.748Z,9.443797
2022-12-18T06:51:16.724Z,9.443830
2022-12-18T06:52:16.727Z,9.443802
2022-12-18T06:53:16.745Z,9.443808
2022-12-18T06:54:16.727Z,9.443800
2022-12-18T06:55:16.723Z,9.443797
2022-12-18T06:56:16.708Z,9.443662
2022-12-18T06:57:16.700Z,9.443641
2022-12-18T06:58:16.699Z,9.443633
2022-12-18T06:59:16.707Z,9.444045
2022-12-18T07:00:16.699Z,9.443829
2022-12-18T07:01:16.830Z,9.443791
2022-12-18T07:02:16.776Z,9.443805
2022-12-18T07:03:16.777Z,9.443742
2022-12-18T07:04:16.681Z,9.443696
2022-12-18T07:05:16.678Z,9.443728
2022-12-18T07:06:16.671Z,9.443746
2022-12-18T07:07:16.656Z,9.443550
2022-12-18T07:08:16.697Z,9.443680
2022-12-18T07:09:16.652Z,9.443752
2022-12-18T07:10:16.645Z,9.443729
2022-12-18T07:11:16.671Z,9.443685
2022-12-18T07:12:16.656Z,9.443743
2022-12-18T07:13:16.646Z,9.443785
2022-12-18T07:14:16.628Z,9.443826
2022-12-18T07:15:16.631Z,9.443811
2022-12-18T07:16:23.951Z,9.443773
2022-12-18T07:17:18.615Z,9.443873
2022-12-18T07:18:16.631Z,9.443816
2022-12-18T07:19:16.702Z,9.443801
2022-12-18T07:20:16.706Z,9.443739
2022-12-18T07:21:16.613Z,9.443700
2022-12-18T07:22:16.620Z,9.443736
2022-12-18T07:23:17.477Z,9.443823
2022-12-18T07:24:16.589Z,9.443743
2022-12-18T07:25:16.612Z,9.443761
2022-12-18T07:26:16.612Z,9.443763
2022-12-18T07:27:16.600Z,9.443816
2022-12-18T07:28:17.630Z,9.443836
2022-12-18T07:29:17.556Z,9.443830
2022-12-18T07:30:16.552Z,9.443851
2022-12-18T07:31:16.655Z,9.443812
2022-12-18T07:32:16.565Z,9.443804
2022-12-18T07:33:16.549Z,9.443791
2022-12-18T07:34:16.536Z,9.443797
2022-12-18T07:35:19.378Z,9.443800
2022-12-18T07:36:18.919Z,9.443807
2022-12-18T07:37:16.533Z,9.443786
2022-12-18T07:38:16.552Z,9.443783
2022-12-18T07:39:16.516Z,9.443782
2022-12-18T07:40:16.510Z,9.443753
2022-12-18T07:41:16.515Z,9.443728
2022-12-18T07:42:16.524Z,9.443786
2022-12-18T07:43:16.505Z,9.443798
2022-12-18T07:44:16.503Z,9.443805
2022-12-18T07:45:16.487Z,9.443765
2022-12-18T07:46:16.529Z,9.443790
2022-12-18T07:47:16.487Z,9.443788
2022-12-18T07:48:16.505Z,9.443703
2022-12-18T07:49:16.470Z,9.443750
2022-12-18T07:50:16.488Z,9.443719
2022-12-18T07:51:16.561Z,9.443706
2022-12-18T07:52:19.308Z,9.443794
2022-12-18T07:53:17.446Z,9.443641
2022-12-18T07:54:16.443Z,9.443558
2022-12-18T07:55:16.457Z,9.443596
2022-12-18T07:56:31.883Z,9.443608
2022-12-18T07:57:48.442Z,9.443502
2022-12-18T07:58:18.441Z,9.443630
2022-12-18T07:59:16.480Z,9.443690
2022-12-18T08:00:16.435Z,9.443528
2022-12-18T08:01:16.504Z,9.443579
2022-12-18T08:02:16.553Z,9.443720
2022-12-18T08:03:16.480Z,9.443692
2022-12-18T08:04:16.416Z,9.443660
2022-12-18T08:05:16.405Z,9.443646
2022-12-18T08:06:16.410Z,9.443716
2022-12-18T08:07:16.484Z,9.443750
2022-12-18T08:08:16.397Z,9.443657
2022-12-18T08:09:16.395Z,9.443643
2022-12-18T08:10:16.407Z,9.443439
2022-12-18T08:11:16.386Z,9.443634
2022-12-18T08:12:16.419Z,9.443886
2022-12-18T08:13:16.423Z,9.443828
2022-12-18T08:14:16.363Z,9.443686
2022-12-18T08:15:16.361Z,9.443662
2022-12-18T08:16:16.412Z,9.443669
2022-12-18T08:17:16.386Z,9.443663
2022-12-18T08:18:16.354Z,9.443638
2022-12-18T08:19:16.341Z,9.443555
2022-12-18T08:20:16.345Z,9.443561
2022-12-18T08:21:16.370Z,9.443584
2022-12-18T08:22:16.329Z,9.443565
2022-12-18T08:23:16.450Z,9.443592
2022-12-18T08:24:16.333Z,9.443633
2022-12-18T08:25:16.324Z,9.443563
2022-12-18T08:26:16.316Z,9.443717
2022-12-18T08:27:31.742Z,9.443689
2022-12-18T08:28:18.326Z,9.443625
2022-12-18T08:29:21.436Z,9.443605
2022-12-18T08:30:17.291Z,9.443569
2022-12-18T08:31:16.340Z,9.443604
2022-12-18T08:32:16.322Z,9.443499
2022-12-18T08:33:16.286Z,9.443611
2022-12-18T08:34:16.330Z,9.443533
2022-12-18T08:35:18.700Z,9.443685
2022-12-18T08:36:17.279Z,9.443655
2022-12-18T08:37:16.272Z,9.443656
2022-12-18T08:38:16.299Z,9.443661
2022-12-18T08:39:16.367Z,9.443696
2022-12-18T08:40:16.279Z,9.443701
2022-12-18T08:41:16.268Z,9.443712
2022-12-18T08:42:16.263Z,9.443722
2022-12-18T08:43:16.243Z,9.443741
2022-12-18T08:44:16.276Z,9.443704
2022-12-18T08:45:16.256Z,9.443705
2022-12-18T08:46:16.318Z,9.443684
2022-12-18T08:47:16.250Z,9.443732
2022-12-18T08:48:20.681Z,9.443757
2022-12-18T08:49:18.231Z,9.443713
2022-12-18T08:50:16.216Z,9.443645
2022-12-18T08:51:16.213Z,9.443770
2022-12-18T08:52:16.227Z,9.443749
2022-12-18T08:53:16.208Z,9.443740
2022-12-18T08:54:16.212Z,9.443629
2022-12-18T08:55:16.286Z,9.443631
2022-12-18T08:56:16.211Z,9.443716
2022-12-18T08:57:16.183Z,9.443681
2022-12-18T08:58:16.192Z,9.443727
2022-12-18T08:59:19.739Z,9.443835
2022-12-18T09:00:17.198Z,9.443729
2022-12-18T09:01:16.324Z,9.443670
2022-12-18T09:02:16.375Z,9.443748
2022-12-18T09:03:16.247Z,9.443854
2022-12-18T09:04:16.159Z,9.443942
2022-12-18T09:05:16.162Z,9.443885
2022-12-18T09:06:16.174Z,9.443872
2022-12-18T09:07:16.191Z,9.443976
2022-12-18T09:08:16.168Z,9.443995
2022-12-18T09:09:16.159Z,9.443841
2022-12-18T09:10:16.135Z,9.443837
2022-12-18T09:11:16.242Z,9.443819
2022-12-18T09:12:16.137Z,9.443840
2022-12-18T09:13:16.158Z,9.443748
2022-12-18T09:14:16.173Z,9.443868
2022-12-18T09:15:16.115Z,9.443830
2022-12-18T09:16:16.111Z,9.443763
2022-12-18T09:17:16.162Z,9.443863
2022-12-18T09:18:16.095Z,9.443839
2022-12-18T09:19:16.098Z,9.443859
2022-12-18T09:20:16.098Z,9.443754
2022-12-18T09:21:16.100Z,9.443678
2022-12-18T09:22:16.082Z,9.443657
2022-12-18T09:23:16.080Z,9.443713
2022-12-18T09:24:16.113Z,9.443881
2022-12-18T09:25:16.063Z,9.444015
2022-12-18T09:26:16.074Z,9.443719
2022-12-18T09:27:16.157Z,9.443676
2022-12-18T09:28:16.065Z,9.443738
2022-12-18T09:29:16.378Z,9.443655
2022-12-18T09:30:16.033Z,9.443700
2022-12-18T09:31:16.145Z,9.443695
2022-12-18T09:32:21.980Z,9.443731
2022-12-18T09:33:18.029Z,9.443805
2022-12-18T09:34:16.017Z,9.443809
2022-12-18T09:35:16.021Z,9.443763
2022-12-18T09:36:16.031Z,9.443750
2022-12-18T09:37:16.012Z,9.443773
2022-12-18T09:38:16.002Z,9.443754
2022-12-18T09:39:15.966Z,9.443712
2022-12-18T09:40:15.967Z,9.443681
2022-12-18T09:41:15.970Z,9.443804
2022-12-18T09:42:15.960Z,9.443776
2022-12-18T09:43:16.056Z,9.443850
2022-12-18T09:44:15.969Z,9.443800
2022-12-18T09:45:16.033Z,9.443809
2022-12-18T09:46:15.993Z,9.443787
2022-12-18T09:47:15.926Z,9.443811
2022-12-18T09:48:15.949Z,9.443748
2022-12-18T09:49:15.914Z,9.443773
2022-12-18T09:50:17.537Z,9.443803
2022-12-18T09:51:16.922Z,9.443778
2022-12-18T09:52:15.907Z,9.443769
2022-12-18T09:53:15.914Z,9.443735
2022-12-18T09:54:15.882Z,9.443735
2022-12-18T09:55:15.866Z,9.443750
2022-12-18T09:56:15.859Z,9.443743
2022-12-18T09:57:15.864Z,9.443746
2022-12-18T09:58:15.867Z,9.443745
2022-12-18T09:59:15.973Z,9.443758
2022-12-18T10:00:15.843Z,9.443732
2022-12-18T10:01:15.909Z,9.443726
2022-12-18T10:02:15.926Z,9.443706
2022-12-18T10:03:15.905Z,9.443731
2022-12-18T10:04:15.861Z,9.443723
2022-12-18T10:05:15.816Z,9.443749
2022-12-18T10:06:15.813Z,9.443818
2022-12-18T10:07:15.795Z,9.443796
2022-12-18T10:08:15.788Z,9.443845
2022-12-18T10:09:41.775Z,9.443888
2022-12-18T10:10:15.799Z,9.443880
2022-12-18T10:11:15.776Z,9.443818
2022-12-18T10:12:15.784Z,9.443893
2022-12-18T10:13:15.767Z,9.443831
2022-12-18T10:14:15.788Z,9.443761
2022-12-18T10:15:15.876Z,9.443780
2022-12-18T10:16:15.801Z,9.443736
2022-12-18T10:17:15.753Z,9.443664
2022-12-18T10:18:20.278Z,9.443697
2022-12-18T10:19:17.771Z,9.443720
2022-12-18T10:20:15.738Z,9.443750
2022-12-18T10:21:15.731Z,9.443712
2022-12-18T10:22:15.723Z,9.443765
2022-12-18T10:23:15.743Z,9.443768
2022-12-18T10:24:15.723Z,9.443779
2022-12-18T10:25:15.708Z,9.443729
2022-12-18T10:26:15.741Z,9.443745
2022-12-18T10:27:16.699Z,9.443725
2022-12-18T10:28:15.676Z,9.443643
2022-12-18T10:29:15.674Z,9.443530
2022-12-18T10:30:15.698Z,9.443661
2022-12-18T10:31:15.878Z,9.443763
2022-12-18T10:32:15.702Z,9.443857
2022-12-18T10:33:15.662Z,9.443686
2022-12-18T10:34:15.710Z,9.443781
2022-12-18T10:35:15.694Z,9.443685
2022-12-18T10:36:15.701Z,9.443900
2022-12-18T10:37:15.640Z,9.443790
2022-12-18T10:38:15.632Z,9.443702
2022-12-18T10:39:15.625Z,9.443778
2022-12-18T10:40:21.935Z,9.443789
2022-12-18T10:41:17.660Z,9.443813
2022-12-18T10:42:15.635Z,9.443840
2022-12-18T10:43:15.610Z,9.443839
2022-12-18T10:44:15.590Z,9.443762
2022-12-18T10:45:16.644Z,9.443714
2022-12-18T10:46:15.665Z,9.443708
2022-12-18T10:47:15.671Z,9.443699
2022-12-18T10:48:15.565Z,9.443749
2022-12-18T10:49:15.553Z,9.443764
2022-12-18T10:50:15.538Z,9.443739
2022-12-18T10:51:15.563Z,9.443710
2022-12-18T10:52:15.586Z,9.443715
2022-12-18T10:53:15.551Z,9.443733
2022-12-18T10:54:15.569Z,9.443745
2022-12-18T10:55:15.571Z,9.443720
2022-12-18T10:56:15.510Z,9.443759
2022-12-18T10:57:15.517Z,9.443764
2022-12-18T10:58:15.537Z,9.443765
2022-12-18T10:59:15.504Z,9.443758
2022-12-18T11:00:15.489Z,9.443759
2022-12-18T11:01:15.734Z,9.443753
2022-12-18T11:02:16.589Z,9.443740
2022-12-18T11:03:15.704Z,9.443778
2022-12-18T11:04:15.475Z,9.443776
2022-12-18T11:05:15.484Z,9.443759
2022-12-18T11:06:15.479Z,9.443774
2022-12-18T11:07:15.456Z,9.443804
2022-12-18T11:08:15.477Z,9.443793
2022-12-18T11:09:15.675Z,9.443840
2022-12-18T11:10:16.555Z,9.443855
2022-12-18T11:11:15.428Z,9.443836
2022-12-18T11:12:15.484Z,9.443821
2022-12-18T11:13:15.491Z,9.443824
2022-12-18T11:14:15.422Z,9.443854
2022-12-18T11:15:15.448Z,9.443844
2022-12-18T11:16:15.451Z,9.443830
2022-12-18T11:17:30.745Z,9.443860
2022-12-18T11:18:17.498Z,9.443842
2022-12-18T11:19:15.412Z,9.443880
2022-12-18T11:20:15.402Z,9.443846
2022-12-18T11:21:15.393Z,9.443795
2022-12-18T11:22:15.398Z,9.443786
2022-12-18T11:23:15.414Z,9.443980
2022-12-18T11:24:15.426Z,9.443977
2022-12-18T11:25:32.517Z,9.444039
2022-12-18T11:26:17.346Z,9.444069
2022-12-18T11:27:15.404Z,9.444033
2022-12-18T11:28:15.330Z,9.443901
2022-12-18T11:29:15.361Z,9.443847
2022-12-18T11:30:15.372Z,9.443756
2022-12-18T11:31:15.437Z,9.443701
2022-12-18T11:32:15.314Z,9.443767
2022-12-18T11:33:15.287Z,9.443898
2022-12-18T11:34:30.911Z,9.443565
2022-12-18T11:35:17.286Z,9.443579
2022-12-18T11:36:15.304Z,9.443554
2022-12-18T11:37:15.286Z,9.443810
2022-12-18T11:38:15.264Z,9.443758
2022-12-18T11:39:15.328Z,9.443775
2022-12-18T11:40:15.291Z,9.443775
2022-12-18T11:41:15.285Z,9.443820
2022-12-18T11:42:15.258Z,9.443792
2022-12-18T11:43:15.265Z,9.443746
2022-12-18T11:44:15.245Z,9.443723
2022-12-18T11:45:15.245Z,9.443812